Terminal Aerodrome Forecast
Issued by NWS

Home | Current Version | Previous Version | Graphics & Text | Print | Product List | Glossary On
Versions: 1 2 3 4 5 6 7 8 9 10 11 12 13 14 15 16 17 18 19 20 21
000
FTUS43 KICT 231012 AAA
TAFRSL
TAF AMD
KRSL 231012Z 2310/2406 17016G23KT P6SM VCTS SCT015CB OVC080
      TEMPO 2310/2312 5SM -TSRA BR BKN015CB
     FM231500 16014G20KT P6SM BKN030
     FM232200 14012KT P6SM VCTS BKN050CB
     FM240300 12011KT P6SM OVC025=

USA.gov is the U.S. government's official web portal to all federal, state and local government web resources and services.